Time;durP1;ratioP1;P1;durP2;ratioP2;P2;SDS_P1;SDS_P2;PMS_P1;PMS_P2;Temp;Humidity;BMP_temperature;BMP_pressure;BME280_temperature;BME280_humidity;BME280_pressure;Samples;Min_cycle;Max_cycle;Signal;HPM_P1;HPM_P2
2022/11/15 00:02:54;;;;;;;1.27;1.10;;;9.10;99.90;;;;;;6363587;28;20313;-67
2022/11/15 00:06:17;;;;;;;1.27;0.93;;;9.10;99.90;;;;;;6364117;28;20269;-67
2022/11/15 00:09:42;;;;;;;0.90;0.90;;;9.20;99.90;;;;;;6358638;28;20298;-69
2022/11/15 00:13:10;;;;;;;1.10;1.10;;;9.30;99.90;;;;;;6362361;28;20308;-67
2022/11/15 00:16:33;;;;;;;1.20;1.20;;;9.30;99.90;;;;;;6363826;28;20289;-67
2022/11/15 00:19:57;;;;;;;1.30;1.30;;;9.30;99.90;;;;;;6363793;28;20293;-68
2022/11/15 00:23:21;;;;;;;1.65;1.60;;;9.00;99.90;;;;;;6363201;28;20289;-68
2022/11/15 00:26:46;;;;;;;1.30;1.30;;;9.00;99.90;;;;;;6364368;28;20490;-66
2022/11/15 00:30:13;;;;;;;1.38;1.38;;;8.90;99.90;;;;;;6363427;28;20294;-66
2022/11/15 00:33:37;;;;;;;1.50;1.40;;;8.80;99.90;;;;;;6363233;28;20293;-66
2022/11/15 00:37:00;;;;;;;1.58;1.40;;;8.70;99.90;;;;;;6363904;28;20289;-66
2022/11/15 00:40:23;;;;;;;1.48;1.48;;;8.70;99.90;;;;;;6362582;28;20273;-66
2022/11/15 00:43:48;;;;;;;1.10;1.10;;;8.60;99.90;;;;;;6362700;28;20292;-66
2022/11/15 00:47:11;;;;;;;1.50;1.40;;;8.60;99.90;;;;;;6363694;28;20269;-66
2022/11/15 00:50:35;;;;;;;1.70;1.70;;;8.80;99.90;;;;;;6362508;28;20265;-67
2022/11/15 00:53:59;;;;;;;1.90;1.90;;;8.80;99.90;;;;;;6363038;28;20470;-66
2022/11/15 00:57:22;;;;;;;1.60;1.60;;;8.80;99.90;;;;;;6362868;28;20437;-67
2022/11/15 01:00:47;;;;;;;1.40;1.40;;;8.70;99.90;;;;;;6382272;27;20486;-67
2022/11/15 01:04:12;;;;;;;1.80;1.80;;;8.60;99.90;;;;;;6387811;27;20288;-67
2022/11/15 01:07:35;;;;;;;1.40;1.40;;;8.60;99.90;;;;;;6387850;27;20260;-68
2022/11/15 01:11:02;;;;;;;1.48;1.48;;;8.50;99.90;;;;;;6388225;27;20260;-68
2022/11/15 01:14:26;;;;;;;1.50;1.50;;;8.50;99.90;;;;;;6388383;27;20289;-68
2022/11/15 01:17:50;;;;;;;1.27;1.27;;;8.40;99.90;;;;;;6388238;27;20284;-68
2022/11/15 01:21:18;;;;;;;1.50;1.50;;;8.50;99.90;;;;;;6388389;27;20261;-68
2022/11/15 01:24:42;;;;;;;1.55;1.55;;;8.60;99.90;;;;;;6387633;27;20292;-67
2022/11/15 01:28:06;;;;;;;1.30;1.30;;;8.60;99.90;;;;;;6388074;27;20288;-67
2022/11/15 01:31:29;;;;;;;1.20;1.20;;;8.70;99.90;;;;;;6388578;27;20264;-68
2022/11/15 01:35:05;;;;;;;1.50;1.50;;;8.60;99.90;;;;;;6387494;27;20288;-67
2022/11/15 01:38:28;;;;;;;1.30;1.30;;;8.50;99.90;;;;;;6387843;27;20290;-66
2022/11/15 01:41:52;;;;;;;1.40;1.40;;;8.50;99.90;;;;;;6387973;27;20269;-67
2022/11/15 01:45:16;;;;;;;1.40;1.40;;;8.50;99.90;;;;;;6387544;27;20334;-66
2022/11/15 01:48:40;;;;;;;1.70;1.60;;;8.50;99.90;;;;;;6387424;27;20296;-66
2022/11/15 01:52:10;;;;;;;1.40;1.40;;;8.30;99.90;;;;;;6388034;27;20270;-67
2022/11/15 01:55:34;;;;;;;1.25;1.25;;;8.40;99.90;;;;;;6386593;27;20288;-68
2022/11/15 01:58:59;;;;;;;1.10;1.05;;;8.40;99.90;;;;;;6387082;27;20304;-68
2022/11/15 02:02:23;;;;;;;1.10;1.10;;;8.40;99.90;;;;;;6386807;27;20427;-67
2022/11/15 02:05:46;;;;;;;1.63;1.00;;;8.40;99.90;;;;;;6387182;27;20414;-67
2022/11/15 02:09:13;;;;;;;1.27;0.90;;;8.30;99.90;;;;;;6386898;27;20296;-67
2022/11/15 02:12:37;;;;;;;0.90;0.90;;;8.30;99.90;;;;;;6386312;27;20569;-67
2022/11/15 02:16:12;;;;;;;0.90;0.90;;;8.20;99.90;;;;;;6387058;27;20288;-67
2022/11/15 02:20:03;;;;;;;0.80;0.80;;;8.20;99.90;;;;;;6386424;27;20304;-67
2022/11/15 02:24:28;;;;;;;0.90;0.90;;;8.30;99.90;;;;;;6386539;27;20288;-67
2022/11/15 02:28:33;;;;;;;0.95;0.95;;;8.40;99.90;;;;;;6386140;27;20297;-66
2022/11/15 02:32:04;;;;;;;1.30;1.30;;;8.30;99.90;;;;;;6387238;27;20260;-67
2022/11/15 02:35:36;;;;;;;1.70;1.60;;;8.10;99.90;;;;;;6386143;27;20264;-68
2022/11/15 02:39:04;;;;;;;1.60;1.50;;;7.90;99.90;;;;;;6386361;27;20289;-67
2022/11/15 02:46:18;;;;;;;1.70;1.70;;;8.00;99.90;;;;;;6386552;28;20284;-66
2022/11/15 02:49:47;;;;;;;1.77;1.77;;;8.10;99.90;;;;;;6386249;28;20300;-67
2022/11/15 02:53:17;;;;;;;1.88;1.88;;;8.10;99.90;;;;;;6385848;28;20399;-66
2022/11/15 02:56:40;;;;;;;1.80;1.80;;;8.00;99.90;;;;;;6386532;28;20584;-66
2022/11/15 03:00:08;;;;;;;1.50;1.50;;;8.00;99.90;;;;;;6386254;28;20315;-66
2022/11/15 03:03:47;;;;;;;1.65;1.65;;;8.00;99.90;;;;;;6385956;28;20289;-67
2022/11/15 03:07:20;;;;;;;1.60;1.60;;;7.90;99.90;;;;;;6386345;28;20269;-66
2022/11/15 03:10:52;;;;;;;1.50;1.50;;;7.80;99.90;;;;;;6379947;28;20277;-67
2022/11/15 03:14:22;;;;;;;1.60;1.60;;;7.80;99.90;;;;;;6385799;27;20564;-67
2022/11/15 03:17:52;;;;;;;1.70;1.70;;;7.70;99.90;;;;;;6385828;27;20293;-67
2022/11/15 03:21:17;;;;;;;1.23;1.23;;;7.60;99.90;;;;;;6385872;27;20268;-67
2022/11/15 03:24:44;;;;;;;1.42;1.40;;;7.60;99.90;;;;;;6390595;27;20289;-67
2022/11/15 03:28:11;;;;;;;1.30;1.30;;;7.50;99.90;;;;;;6390495;27;20292;-67
2022/11/15 03:31:50;;;;;;;1.20;1.20;;;7.50;99.90;;;;;;6390803;27;20264;-67
2022/11/15 03:35:19;;;;;;;1.00;1.00;;;7.40;99.90;;;;;;6390254;27;20297;-67
2022/11/15 03:38:43;;;;;;;1.27;1.27;;;7.50;99.90;;;;;;6390605;27;20356;-67
2022/11/15 03:42:20;;;;;;;1.40;1.40;;;7.30;99.90;;;;;;6391001;27;20265;-68
2022/11/15 03:45:47;;;;;;;1.20;1.20;;;7.30;99.90;;;;;;6389039;27;20285;-66
2022/11/15 03:49:16;;;;;;;1.10;1.10;;;7.40;99.90;;;;;;6390257;27;20291;-67
2022/11/15 03:52:41;;;;;;;1.40;1.35;;;7.50;99.90;;;;;;6389759;27;20268;-66
2022/11/15 03:56:05;;;;;;;1.30;1.30;;;7.50;99.90;;;;;;6390136;27;20265;-67
2022/11/15 03:59:30;;;;;;;1.10;1.10;;;7.40;99.90;;;;;;6389863;27;20609;-67
2022/11/15 04:02:53;;;;;;;1.45;1.45;;;7.40;99.90;;;;;;6370234;27;20453;-67
2022/11/15 04:06:17;;;;;;;1.30;1.30;;;7.40;99.90;;;;;;6388715;27;20289;-68
2022/11/15 04:13:18;;;;;;;1.60;1.60;;;7.60;99.90;;;;;;6385844;27;20265;-66
2022/11/15 04:16:43;;;;;;;1.63;1.63;;;7.50;99.90;;;;;;6389471;27;20292;-67
2022/11/15 04:27:34;;;;;;;1.67;1.67;;;7.30;99.90;;;;;;6389999;27;20276;-67
2022/11/15 04:30:58;;;;;;;1.83;1.83;;;7.40;99.90;;;;;;6389238;27;20300;-67
2022/11/15 04:34:23;;;;;;;1.55;1.55;;;7.40;99.90;;;;;;6388045;27;20599;-67
2022/11/15 04:37:47;;;;;;;1.70;1.70;;;7.40;99.90;;;;;;6389071;27;20280;-67
2022/11/15 04:41:13;;;;;;;1.50;1.50;;;7.30;99.90;;;;;;6388819;27;20268;-67
2022/11/15 04:44:37;;;;;;;1.38;1.38;;;7.40;99.90;;;;;;6388760;27;20297;-67
2022/11/15 04:48:00;;;;;;;1.30;1.30;;;7.20;99.90;;;;;;6389467;27;20269;-67
2022/11/15 04:51:25;;;;;;;1.70;1.70;;;7.30;99.90;;;;;;6388111;27;20264;-67
2022/11/15 04:54:48;;;;;;;1.55;1.55;;;7.20;99.90;;;;;;6388275;27;20482;-67
2022/11/15 04:58:13;;;;;;;1.67;1.58;;;7.20;99.90;;;;;;6388280;27;20288;-67
2022/11/15 05:01:37;;;;;;;1.77;1.77;;;7.20;99.90;;;;;;6363360;28;20561;-67
2022/11/15 05:05:09;;;;;;;1.77;1.77;;;7.20;99.90;;;;;;6362764;28;20608;-67
2022/11/15 05:08:34;;;;;;;1.77;1.60;;;7.30;99.90;;;;;;6362959;28;20285;-67
2022/11/15 05:11:57;;;;;;;1.90;1.90;;;7.30;99.90;;;;;;6355899;28;20261;-67
2022/11/15 05:15:21;;;;;;;1.80;1.70;;;7.20;99.90;;;;;;6362483;28;20296;-67
2022/11/15 05:18:45;;;;;;;1.90;1.90;;;7.30;99.90;;;;;;6362476;28;20292;-67
2022/11/15 05:22:10;;;;;;;3.03;1.90;;;7.30;99.90;;;;;;6362976;28;20266;-67
2022/11/15 05:25:37;;;;;;;2.00;1.90;;;7.30;99.90;;;;;;6362342;28;20466;-67
2022/11/15 05:29:01;;;;;;;1.70;1.63;;;7.20;99.90;;;;;;6362081;28;20297;-67
2022/11/15 05:32:27;;;;;;;2.00;1.90;;;7.30;99.90;;;;;;6362383;28;20261;-67
2022/11/15 05:35:57;;;;;;;2.22;2.03;;;7.20;99.90;;;;;;6362096;28;20293;-67
2022/11/15 05:39:20;;;;;;;2.15;1.95;;;7.20;99.90;;;;;;6361942;28;20312;-67
2022/11/15 05:42:45;;;;;;;1.70;1.70;;;7.30;99.90;;;;;;6362221;28;20341;-67
2022/11/15 05:46:10;;;;;;;2.10;1.73;;;7.30;99.90;;;;;;6360901;28;20582;-67
2022/11/15 05:49:36;;;;;;;1.90;1.75;;;7.30;99.90;;;;;;6361635;28;20297;-67
2022/11/15 05:53:00;;;;;;;1.80;1.80;;;7.30;99.90;;;;;;6362298;28;20561;-67
2022/11/15 05:56:28;;;;;;;1.65;1.55;;;7.40;99.90;;;;;;6359257;28;20272;-67
2022/11/15 05:59:53;;;;;;;1.63;1.63;;;7.40;99.90;;;;;;6368671;27;20308;-67
2022/11/15 06:03:16;;;;;;;1.85;1.85;;;7.40;99.90;;;;;;6386525;27;20269;-67
2022/11/15 06:06:40;;;;;;;3.05;1.70;;;7.40;99.90;;;;;;6387160;27;20268;-67
2022/11/15 06:10:04;;;;;;;1.80;1.70;;;7.40;99.90;;;;;;6387115;27;20296;-66
2022/11/15 06:13:27;;;;;;;1.70;1.60;;;7.30;99.90;;;;;;6386306;27;20261;-66
2022/11/15 06:16:53;;;;;;;1.40;1.40;;;7.40;99.90;;;;;;6387117;27;20548;-66
2022/11/15 06:20:16;;;;;;;1.13;1.13;;;7.40;99.90;;;;;;6386362;27;20301;-66
2022/11/15 06:23:41;;;;;;;2.13;1.48;;;7.40;99.90;;;;;;6386193;27;20297;-67
2022/11/15 06:27:05;;;;;;;1.38;1.27;;;7.40;99.90;;;;;;6386774;27;20268;-66
2022/11/15 06:30:28;;;;;;;2.00;1.17;;;7.40;99.90;;;;;;6386202;27;20292;-67
2022/11/15 06:33:53;;;;;;;1.02;1.02;;;7.40;99.90;;;;;;6386142;27;20300;-66
2022/11/15 06:37:17;;;;;;;1.40;1.40;;;7.40;99.90;;;;;;6386809;27;20264;-66
2022/11/15 06:40:41;;;;;;;2.03;1.50;;;7.50;99.90;;;;;;6386094;27;20288;-66
2022/11/15 06:44:05;;;;;;;1.30;1.20;;;7.50;99.90;;;;;;6386157;28;20592;-67
2022/11/15 06:47:28;;;;;;;2.40;1.20;;;7.50;99.90;;;;;;6386737;28;20281;-66
2022/11/15 06:50:54;;;;;;;1.30;1.30;;;7.50;99.90;;;;;;6385851;28;20296;-66
2022/11/15 06:54:17;;;;;;;1.33;1.17;;;7.50;99.90;;;;;;6385602;28;20382;-67
2022/11/15 06:57:48;;;;;;;2.05;1.30;;;7.40;99.90;;;;;;6388815;27;20264;-68
2022/11/15 07:01:13;;;;;;;2.85;1.10;;;7.50;99.90;;;;;;6390329;27;20485;-67
2022/11/15 07:04:37;;;;;;;1.00;1.00;;;7.60;99.90;;;;;;6395486;27;20297;-67
2022/11/15 07:08:02;;;;;;;2.17;1.23;;;7.60;99.90;;;;;;6391061;27;20261;-67
2022/11/15 07:11:25;;;;;;;1.10;1.10;;;7.60;99.90;;;;;;6381927;27;20265;-67
2022/11/15 07:14:49;;;;;;;2.13;1.00;;;7.60;99.90;;;;;;6364987;28;20293;-66
2022/11/15 07:18:15;;;;;;;0.93;0.93;;;7.60;99.90;;;;;;6365174;28;20261;-67
2022/11/15 07:21:38;;;;;;;1.27;1.17;;;7.60;99.90;;;;;;6365210;28;20277;-67
2022/11/15 07:25:04;;;;;;;0.82;0.80;;;7.60;99.90;;;;;;6364980;28;20288;-67
2022/11/15 07:28:27;;;;;;;1.88;1.35;;;7.60;99.90;;;;;;6364671;28;20285;-66
2022/11/15 07:31:51;;;;;;;3.38;1.10;;;7.70;99.90;;;;;;6365520;28;20274;-66
2022/11/15 07:35:15;;;;;;;1.20;1.20;;;7.70;99.90;;;;;;6364995;28;20459;-67
2022/11/15 07:38:39;;;;;;;1.15;1.15;;;7.70;99.90;;;;;;6364892;28;20565;-67
2022/11/15 07:45:48;;;;;;;1.38;1.10;;;7.70;99.90;;;;;;6364597;28;20293;-66
2022/11/15 07:49:14;;;;;;;1.23;1.08;;;7.80;99.90;;;;;;6364408;28;20488;-67
2022/11/15 07:52:38;;;;;;;5.43;1.17;;;7.70;99.90;;;;;;6364739;28;20270;-67
2022/11/15 07:56:02;;;;;;;1.98;1.30;;;7.70;99.90;;;;;;6364518;28;20301;-66
2022/11/15 07:59:27;;;;;;;1.58;1.17;;;7.70;99.90;;;;;;6372018;27;20296;-67
2022/11/15 08:02:50;;;;;;;2.00;1.45;;;7.80;99.90;;;;;;6390514;27;20265;-67
2022/11/15 08:06:14;;;;;;;1.58;1.10;;;7.80;99.90;;;;;;6389089;27;20264;-67
2022/11/15 08:09:38;;;;;;;2.88;1.30;;;7.80;99.90;;;;;;6389345;27;20296;-67
2022/11/15 08:13:05;;;;;;;1.30;1.10;;;7.80;99.90;;;;;;6389467;27;20261;-67
2022/11/15 08:16:30;;;;;;;1.67;1.30;;;7.80;99.90;;;;;;6388903;27;20265;-66
2022/11/15 08:19:53;;;;;;;2.58;1.25;;;7.70;99.90;;;;;;6389403;27;20458;-67
2022/11/15 08:23:16;;;;;;;4.95;1.15;;;7.70;99.90;;;;;;6389438;27;20441;-67
2022/11/15 08:26:40;;;;;;;1.63;1.50;;;7.70;99.90;;;;;;6389623;27;20281;-66
2022/11/15 08:30:05;;;;;;;2.17;1.30;;;7.70;99.90;;;;;;6389376;27;20288;-67
2022/11/15 08:33:31;;;;;;;2.53;1.33;;;7.70;99.90;;;;;;6389223;27;20470;-67
2022/11/15 08:36:55;;;;;;;2.40;1.23;;;7.60;99.90;;;;;;6389797;27;20311;-67
2022/11/15 08:40:19;;;;;;;1.45;1.27;;;7.60;99.90;;;;;;6388907;27;20293;-67
2022/11/15 08:43:42;;;;;;;3.13;1.40;;;7.70;99.90;;;;;;6388612;27;20316;-68
2022/11/15 08:47:06;;;;;;;6.50;1.40;;;7.60;99.90;;;;;;6389353;27;20264;-67
2022/11/15 08:50:31;;;;;;;1.23;1.23;;;7.60;99.90;;;;;;6388815;27;20293;-67
2022/11/15 08:53:55;;;;;;;1.95;1.10;;;7.60;99.90;;;;;;6388769;27;20288;-68
2022/11/15 08:57:18;;;;;;;1.02;1.02;;;7.70;99.90;;;;;;6389261;27;20269;-67
2022/11/15 09:00:42;;;;;;;1.85;1.17;;;7.70;99.90;;;;;;6387714;27;20301;-67
2022/11/15 09:04:06;;;;;;;2.60;1.20;;;7.80;99.90;;;;;;6388191;27;20288;-67
2022/11/15 09:07:31;;;;;;;2.78;1.00;;;7.70;99.90;;;;;;6389118;27;20269;-67
2022/11/15 09:10:54;;;;;;;1.10;1.10;;;7.70;99.90;;;;;;6388248;27;20300;-68
2022/11/15 09:14:18;;;;;;;1.55;1.45;;;7.70;99.90;;;;;;6388303;27;20605;-67
2022/11/15 09:17:41;;;;;;;1.02;1.02;;;7.80;99.90;;;;;;6388858;27;20264;-67
2022/11/15 09:21:06;;;;;;;2.85;2.70;;;7.80;99.90;;;;;;6387674;27;20292;-68
2022/11/15 09:24:31;;;;;;;1.00;1.00;;;7.80;99.90;;;;;;6387954;27;20458;-67
2022/11/15 09:27:54;;;;;;;1.10;1.10;;;7.80;99.90;;;;;;6388603;27;20269;-68
2022/11/15 09:31:18;;;;;;;1.50;1.05;;;7.80;99.90;;;;;;6387571;27;20273;-67
2022/11/15 09:34:44;;;;;;;4.43;1.40;;;7.80;99.90;;;;;;6387443;27;20297;-67
2022/11/15 09:38:08;;;;;;;0.93;0.93;;;7.80;99.90;;;;;;6387847;27;20265;-68
2022/11/15 09:42:13;;;;;;;1.17;1.17;;;7.90;99.90;;;;;;6386450;27;20565;-67
2022/11/15 09:45:42;;;;;;;1.60;1.40;;;7.90;99.90;;;;;;6387254;27;20577;-68
2022/11/15 09:49:04;;;;;;;1.00;1.00;;;7.90;99.90;;;;;;6387096;27;20291;-68
2022/11/15 09:52:29;;;;;;;1.10;1.10;;;7.90;99.90;;;;;;6369179;27;20268;-67
2022/11/15 09:55:42;;;;;;;1.20;1.10;;;8.00;99.90;;;;;;6387074;27;20292;-67
2022/11/15 09:58:59;;;;;;;2.58;1.77;;;8.00;99.90;;;;;;6386153;27;20296;-67
2022/11/15 10:02:19;;;;;;;1.10;1.00;;;7.90;99.90;;;;;;6387363;27;20293;-67
2022/11/15 10:05:26;;;;;;;3.10;1.17;;;7.80;99.90;;;;;;6386499;27;20513;-66
2022/11/15 10:08:57;;;;;;;1.20;1.10;;;7.90;99.90;;;;;;6386634;27;20288;-66
2022/11/15 10:12:02;;;;;;;2.60;2.40;;;8.00;99.90;;;;;;6386818;27;20264;-67
2022/11/15 10:15:16;;;;;;;1.23;1.20;;;8.00;99.90;;;;;;6386799;27;20292;-67
2022/11/15 10:18:28;;;;;;;0.90;0.90;;;8.00;99.90;;;;;;6386359;27;20265;-67
2022/11/15 10:21:40;;;;;;;1.00;1.00;;;8.00;99.90;;;;;;6386576;27;20288;-67
2022/11/15 10:24:47;;;;;;;1.55;1.02;;;8.10;99.90;;;;;;6386210;27;20288;-67
2022/11/15 10:27:58;;;;;;;1.98;1.27;;;8.00;99.90;;;;;;6386872;27;20594;-67
2022/11/15 10:31:21;;;;;;;1.08;1.08;;;8.10;99.90;;;;;;6385211;27;20296;-67
2022/11/15 10:34:27;;;;;;;2.95;1.23;;;8.10;99.90;;;;;;6386188;27;20292;-67
2022/11/15 10:37:33;;;;;;;1.88;1.77;;;8.20;99.90;;;;;;6386688;27;20264;-67
2022/11/15 10:40:40;;;;;;;1.80;1.70;;;8.10;99.90;;;;;;6385933;27;20296;-67
2022/11/15 10:43:45;;;;;;;3.13;1.05;;;8.10;99.90;;;;;;6385979;28;20288;-67
2022/11/15 10:47:22;;;;;;;2.03;1.50;;;8.10;99.90;;;;;;6386227;28;20281;-68
2022/11/15 10:50:30;;;;;;;1.20;1.02;;;8.10;99.90;;;;;;6385654;28;20293;-67
2022/11/15 10:53:44;;;;;;;4.65;2.10;;;8.00;99.90;;;;;;6386000;28;20293;-67
2022/11/15 10:56:52;;;;;;;1.20;1.20;;;8.10;99.90;;;;;;6386143;28;20448;-67
2022/11/15 10:59:59;;;;;;;1.05;1.05;;;8.00;99.90;;;;;;6385736;28;20303;-67
2022/11/15 11:03:08;;;;;;;1.52;1.40;;;8.00;99.90;;;;;;6386350;28;20297;-67
2022/11/15 11:06:16;;;;;;;2.00;1.90;;;8.00;99.90;;;;;;6385438;28;20451;-67
2022/11/15 11:09:30;;;;;;;3.08;1.70;;;8.10;99.90;;;;;;6385361;28;20292;-67
2022/11/15 11:12:36;;;;;;;2.15;1.38;;;8.10;99.90;;;;;;6378752;28;20475;-67
2022/11/15 11:15:41;;;;;;;1.10;1.10;;;8.20;99.90;;;;;;6385405;27;20285;-67
2022/11/15 11:18:58;;;;;;;1.30;1.25;;;8.20;99.90;;;;;;6385381;27;20296;-67
2022/11/15 11:22:10;;;;;;;2.65;2.50;;;8.20;99.90;;;;;;6385981;28;20284;-67
2022/11/15 11:25:34;;;;;;;2.05;1.95;;;8.20;99.90;;;;;;6385577;27;20284;-67
2022/11/15 11:28:46;;;;;;;1.63;1.27;;;8.20;99.90;;;;;;6385596;27;20432;-67
2022/11/15 11:31:59;;;;;;;1.10;1.10;;;8.20;99.90;;;;;;6385940;28;20268;-67
2022/11/15 11:35:13;;;;;;;1.27;1.23;;;8.30;99.90;;;;;;6385303;27;20292;-67
2022/11/15 11:38:39;;;;;;;1.27;1.20;;;8.20;99.90;;;;;;6385588;27;20460;-67
2022/11/15 11:41:55;;;;;;;3.38;1.00;;;8.20;99.90;;;;;;6385564;28;20292;-67
2022/11/15 11:45:13;;;;;;;1.20;1.20;;;8.10;99.90;;;;;;6389265;27;20293;-68
2022/11/15 11:48:32;;;;;;;1.25;1.25;;;8.10;99.90;;;;;;6390330;27;20266;-67
2022/11/15 11:51:43;;;;;;;1.75;1.35;;;8.10;99.90;;;;;;6390782;27;20264;-68
2022/11/15 11:54:59;;;;;;;1.17;1.05;;;8.10;99.90;;;;;;6389870;27;20288;-66
2022/11/15 11:58:12;;;;;;;1.10;1.10;;;8.00;99.90;;;;;;6390159;27;20264;-67
2022/11/15 12:01:23;;;;;;;1.20;1.20;;;7.90;99.90;;;;;;6388613;27;20293;-67
2022/11/15 12:04:31;;;;;;;1.75;1.10;;;8.00;99.90;;;;;;6389300;27;20288;-67
2022/11/15 12:07:40;;;;;;;1.48;1.27;;;7.90;99.90;;;;;;6390385;27;20549;-66
2022/11/15 12:10:51;;;;;;;2.95;1.30;;;8.00;99.90;;;;;;6389856;27;20297;-66
2022/11/15 12:14:01;;;;;;;1.40;1.30;;;8.00;99.90;;;;;;6389231;27;20326;-66
2022/11/15 12:17:09;;;;;;;3.65;1.52;;;8.00;99.90;;;;;;6389659;27;20268;-67
2022/11/15 12:20:20;;;;;;;1.23;1.23;;;8.00;99.90;;;;;;6389244;27;20288;-67
2022/11/15 12:23:30;;;;;;;1.23;1.23;;;8.10;99.90;;;;;;6389094;27;20292;-67
2022/11/15 12:26:40;;;;;;;1.40;1.30;;;7.90;99.90;;;;;;6389448;27;20260;-67
2022/11/15 12:29:49;;;;;;;1.30;1.30;;;7.90;99.90;;;;;;6389168;27;20292;-67
2022/11/15 12:32:58;;;;;;;2.80;1.20;;;7.80;99.90;;;;;;6389379;27;20264;-67
2022/11/15 12:36:06;;;;;;;2.15;1.60;;;7.80;99.90;;;;;;6389008;27;20292;-66
2022/11/15 12:39:14;;;;;;;1.83;1.17;;;7.70;99.90;;;;;;6388929;27;20292;-67
2022/11/15 12:42:41;;;;;;;1.25;1.15;;;7.80;99.90;;;;;;6370858;27;20339;-67
2022/11/15 12:45:46;;;;;;;1.75;1.35;;;7.80;99.90;;;;;;6388444;27;20596;-67
2022/11/15 12:48:55;;;;;;;1.20;1.20;;;7.70;99.90;;;;;;6388657;27;20297;-67
2022/11/15 12:52:10;;;;;;;1.58;1.10;;;7.70;99.90;;;;;;6389220;27;20264;-68
2022/11/15 12:55:34;;;;;;;4.35;1.55;;;7.80;99.90;;;;;;6387501;27;20301;-67
2022/11/15 12:58:45;;;;;;;1.45;1.15;;;7.70;99.90;;;;;;6387976;27;20289;-67
2022/11/15 13:02:18;;;;;;;1.40;1.30;;;7.70;99.90;;;;;;6388891;27;20406;-67
2022/11/15 13:06:31;;;;;;;1.40;1.30;;;7.70;99.90;;;;;;6388109;27;20463;-68
2022/11/15 13:09:56;;;;;;;2.45;1.25;;;7.70;99.90;;;;;;6299465;27;20292;-68
2022/11/15 13:13:04;;;;;;;2.88;1.33;;;7.80;99.90;;;;;;6380731;27;20261;-67
2022/11/15 13:16:12;;;;;;;1.10;1.10;;;7.70;99.90;;;;;;6387854;27;20302;-68
2022/11/15 13:19:25;;;;;;;2.00;1.20;;;7.70;99.90;;;;;;6387523;27;20499;-68
2022/11/15 13:22:54;;;;;;;1.17;1.17;;;7.60;99.90;;;;;;6388350;27;20293;-68
2022/11/15 13:26:16;;;;;;;5.68;1.55;;;7.60;99.90;;;;;;6387656;27;20299;-68
2022/11/15 13:29:23;;;;;;;3.33;1.40;;;7.60;99.90;;;;;;6387709;27;20292;-68
2022/11/15 13:32:27;;;;;;;1.20;1.20;;;7.60;99.90;;;;;;6387697;27;20265;-66
2022/11/15 13:35:34;;;;;;;2.40;1.23;;;7.60;99.90;;;;;;6387098;27;20485;-67
2022/11/15 13:38:41;;;;;;;1.17;1.10;;;7.50;99.90;;;;;;6387237;27;20292;-68
2022/11/15 13:41:49;;;;;;;1.27;1.20;;;7.50;99.90;;;;;;6387842;27;20541;-67
2022/11/15 13:45:00;;;;;;;2.58;1.15;;;7.50;99.90;;;;;;6386938;27;20292;-67
2022/11/15 13:48:06;;;;;;;2.60;1.30;;;7.60;99.90;;;;;;6387307;27;20545;-68
2022/11/15 13:51:18;;;;;;;2.92;1.40;;;7.60;99.90;;;;;;6386737;27;20268;-68
2022/11/15 13:54:28;;;;;;;1.33;1.15;;;7.60;99.90;;;;;;6386882;27;20296;-68
2022/11/15 13:57:39;;;;;;;1.45;1.35;;;7.60;99.90;;;;;;6387677;27;20445;-67
2022/11/15 14:00:47;;;;;;;1.55;1.50;;;7.60;99.90;;;;;;6386416;27;20305;-67
2022/11/15 14:03:56;;;;;;;2.35;1.50;;;7.60;99.90;;;;;;6385907;27;20288;-67
2022/11/15 14:07:03;;;;;;;1.88;1.55;;;7.60;99.90;;;;;;6386669;27;20266;-67
2022/11/15 14:10:26;;;;;;;1.70;1.60;;;7.50;99.90;;;;;;6386342;27;20297;-67
2022/11/15 14:13:32;;;;;;;1.10;1.10;;;7.60;99.90;;;;;;6360717;28;20298;-67
2022/11/15 14:16:41;;;;;;;1.55;1.55;;;7.50;99.90;;;;;;6361482;28;20266;-67
2022/11/15 14:19:46;;;;;;;1.58;1.48;;;7.50;99.90;;;;;;6343214;28;20292;-67
2022/11/15 14:22:54;;;;;;;2.95;1.25;;;7.50;99.90;;;;;;6361053;28;20261;-67
2022/11/15 14:26:00;;;;;;;2.47;1.13;;;7.50;99.90;;;;;;6360837;28;20297;-67
2022/11/15 14:29:23;;;;;;;2.35;1.10;;;7.50;99.90;;;;;;6360788;28;20288;-67
2022/11/15 14:32:44;;;;;;;1.00;1.00;;;7.50;99.90;;;;;;6361282;28;20278;-67
2022/11/15 14:35:49;;;;;;;2.15;0.98;;;7.60;99.90;;;;;;6360355;28;20301;-68
2022/11/15 14:38:54;;;;;;;1.35;1.10;;;7.50;99.90;;;;;;6360495;28;20324;-67
2022/11/15 14:41:59;;;;;;;1.38;1.00;;;7.50;99.90;;;;;;6360771;28;20290;-67
2022/11/15 14:45:08;;;;;;;1.33;1.13;;;7.50;99.90;;;;;;6360393;28;20300;-67
2022/11/15 14:48:15;;;;;;;4.63;1.23;;;7.50;99.90;;;;;;6359902;28;20269;-68
2022/11/15 14:51:20;;;;;;;0.90;0.90;;;7.40;99.90;;;;;;6361002;28;20265;-68
2022/11/15 14:54:25;;;;;;;1.10;1.10;;;7.40;99.90;;;;;;6360328;28;20364;-67
2022/11/15 14:57:30;;;;;;;2.05;1.00;;;7.40;99.90;;;;;;6360949;28;20273;-67
2022/11/15 15:00:35;;;;;;;1.13;1.08;;;7.40;99.90;;;;;;6359543;28;20302;-67
2022/11/15 15:03:43;;;;;;;0.95;0.95;;;7.40;99.90;;;;;;6359611;28;20297;-67
2022/11/15 15:06:48;;;;;;;4.38;1.30;;;7.40;99.90;;;;;;6359981;28;20269;-66
2022/11/15 15:09:53;;;;;;;1.95;1.08;;;7.40;99.90;;;;;;6360458;28;20620;-67
2022/11/15 15:13:21;;;;;;;1.85;1.13;;;7.40;99.90;;;;;;6383836;28;20524;-68
2022/11/15 15:16:26;;;;;;;1.38;1.10;;;7.40;99.90;;;;;;6386152;28;20269;-67
2022/11/15 15:19:32;;;;;;;2.05;1.30;;;7.40;99.90;;;;;;6389298;27;20288;-67
2022/11/15 15:22:37;;;;;;;1.20;1.20;;;7.30;99.90;;;;;;6391062;27;20269;-67
2022/11/15 15:25:43;;;;;;;2.58;1.30;;;7.30;99.90;;;;;;6390200;27;20300;-67
2022/11/15 15:28:48;;;;;;;1.25;1.10;;;7.30;99.90;;;;;;6372212;27;20296;-66
2022/11/15 15:31:53;;;;;;;0.90;0.90;;;7.20;99.90;;;;;;6390766;27;20264;-66
2022/11/15 15:34:59;;;;;;;1.08;0.90;;;7.20;99.90;;;;;;6389930;27;20611;-66
2022/11/15 15:38:04;;;;;;;1.50;1.40;;;7.10;99.90;;;;;;6391097;27;20265;-68
2022/11/15 15:41:12;;;;;;;1.42;1.33;;;7.10;99.90;;;;;;6389426;27;20264;-67
2022/11/15 15:44:17;;;;;;;1.20;1.20;;;7.20;99.90;;;;;;6390249;27;20297;-67
2022/11/15 15:47:23;;;;;;;2.75;2.55;;;7.20;99.90;;;;;;6390384;27;20264;-66
2022/11/15 15:50:33;;;;;;;2.25;1.70;;;7.10;99.90;;;;;;6389710;27;20469;-67
2022/11/15 15:53:38;;;;;;;3.92;1.70;;;7.00;99.90;;;;;;6389442;27;20288;-67
2022/11/15 15:56:42;;;;;;;1.10;1.10;;;7.00;99.90;;;;;;6390183;27;20560;-67
2022/11/15 15:59:47;;;;;;;1.27;1.17;;;7.00;99.90;;;;;;6389726;27;20303;-67
2022/11/15 16:02:52;;;;;;;1.30;1.30;;;7.00;99.90;;;;;;6390107;27;20261;-68
2022/11/15 16:05:59;;;;;;;2.30;1.38;;;7.10;99.90;;;;;;6389739;27;20296;-68
2022/11/15 16:09:04;;;;;;;1.13;1.03;;;7.00;99.90;;;;;;6389376;27;20288;-67
2022/11/15 16:12:20;;;;;;;1.20;1.20;;;7.10;99.90;;;;;;6382364;27;20568;-67
2022/11/15 16:15:26;;;;;;;2.33;2.33;;;7.10;99.90;;;;;;6389097;27;20297;-67
2022/11/15 16:18:32;;;;;;;1.50;1.50;;;7.10;99.90;;;;;;6389253;27;20296;-67
2022/11/15 16:21:39;;;;;;;1.67;1.42;;;7.10;99.90;;;;;;6389948;27;20268;-67
2022/11/15 16:24:44;;;;;;;1.40;1.40;;;7.10;99.90;;;;;;6388992;27;20485;-67
2022/11/15 16:27:49;;;;;;;1.30;1.30;;;7.10;99.90;;;;;;6389416;27;20261;-68
2022/11/15 16:31:03;;;;;;;1.85;1.85;;;7.20;99.90;;;;;;6388927;27;20304;-67
2022/11/15 16:34:10;;;;;;;1.52;1.42;;;7.00;99.90;;;;;;6388887;27;20305;-67
2022/11/15 16:37:23;;;;;;;1.50;1.38;;;7.10;99.90;;;;;;6389347;27;20269;-67
2022/11/15 16:40:30;;;;;;;0.93;0.93;;;7.10;99.90;;;;;;6388695;27;20605;-66
2022/11/15 16:43:35;;;;;;;1.02;1.00;;;7.10;99.90;;;;;;6388013;27;20292;-68
2022/11/15 16:46:42;;;;;;;0.90;0.90;;;7.00;99.90;;;;;;6388927;27;20292;-67
2022/11/15 16:49:47;;;;;;;1.38;1.27;;;7.10;99.90;;;;;;6388814;27;20466;-67
2022/11/15 16:52:55;;;;;;;2.38;0.98;;;7.10;99.90;;;;;;6389387;27;20260;-67
2022/11/15 16:56:00;;;;;;;1.63;1.48;;;7.10;99.90;;;;;;6388130;27;20489;-67
2022/11/15 16:59:05;;;;;;;1.05;1.05;;;7.10;99.90;;;;;;6388466;27;20296;-67
2022/11/15 17:02:13;;;;;;;1.00;1.00;;;7.00;99.90;;;;;;6388851;27;20264;-68
2022/11/15 17:05:19;;;;;;;1.10;1.10;;;7.00;99.90;;;;;;6388064;27;20300;-67
2022/11/15 17:08:27;;;;;;;2.17;0.90;;;7.20;99.90;;;;;;6388215;27;20265;-67
2022/11/15 17:11:32;;;;;;;2.03;1.92;;;7.10;99.90;;;;;;6388975;27;20257;-67
2022/11/15 17:14:37;;;;;;;1.45;1.45;;;7.10;99.90;;;;;;6388214;27;20287;-67
2022/11/15 17:17:42;;;;;;;1.00;1.00;;;7.10;99.90;;;;;;6388662;27;20260;-67
2022/11/15 17:20:47;;;;;;;1.00;1.00;;;7.00;99.90;;;;;;6387758;27;20617;-67
2022/11/15 17:23:53;;;;;;;2.27;1.13;;;7.00;99.90;;;;;;6387372;27;20329;-67
2022/11/15 17:26:58;;;;;;;1.10;1.10;;;7.00;99.90;;;;;;6387654;27;20501;-67
2022/11/15 17:30:04;;;;;;;1.48;1.13;;;7.00;99.90;;;;;;6387736;27;20296;-68
2022/11/15 17:33:14;;;;;;;0.70;0.70;;;6.90;99.90;;;;;;6387304;27;20418;-67
2022/11/15 17:36:19;;;;;;;1.00;1.00;;;6.90;99.90;;;;;;6387703;27;20277;-67
2022/11/15 17:39:26;;;;;;;3.17;0.90;;;6.90;99.90;;;;;;6387306;27;20296;-67
2022/11/15 17:42:31;;;;;;;1.35;1.17;;;7.00;99.90;;;;;;6387551;27;20264;-67
2022/11/15 17:45:41;;;;;;;1.30;1.30;;;6.90;99.90;;;;;;6387041;27;20457;-68
2022/11/15 17:48:47;;;;;;;1.48;1.38;;;6.90;99.90;;;;;;6387121;27;20468;-68